createdAt,value
2022-11-13T00:02:37.735Z,99156.03
2022-11-13T00:05:23.454Z,99100.50
2022-11-13T00:08:09.159Z,99175.94
2022-11-13T00:11:01.890Z,99195.84
2022-11-13T00:13:49.000Z,99112.63
2022-11-13T00:16:34.163Z,99180.22
2022-11-13T00:19:19.784Z,99114.28
2022-11-13T00:22:05.256Z,99174.97
2022-11-13T00:24:50.694Z,99173.25
2022-11-13T00:27:36.237Z,99170.63
2022-11-13T00:30:21.993Z,99174.09
2022-11-13T00:33:07.490Z,99175.84
2022-11-13T00:35:53.164Z,99193.97
2022-11-13T00:38:38.857Z,99102.00
2022-11-13T00:41:24.947Z,99212.16
2022-11-13T00:44:10.955Z,99212.16
2022-11-13T00:46:56.419Z,99205.28
2022-11-13T00:49:42.105Z,99210.47
2022-11-13T00:52:27.695Z,99149.69
2022-11-13T00:55:13.444Z,99215.66
2022-11-13T00:57:58.752Z,99156.69
2022-11-13T01:00:47.413Z,99208.72
2022-11-13T01:03:33.379Z,99138.41
2022-11-13T01:06:24.669Z,99203.53
2022-11-13T01:09:10.203Z,99199.16
2022-11-13T01:11:56.146Z,99210.41
2022-11-13T01:14:41.556Z,99193.09
2022-11-13T01:17:27.654Z,99172.25
2022-11-13T01:20:13.447Z,99172.25
2022-11-13T01:22:59.343Z,99200.03
2022-11-13T01:25:45.236Z,99155.78
2022-11-13T01:28:31.185Z,99206.09
2022-11-13T01:31:19.721Z,99193.94
2022-11-13T01:34:05.382Z,99185.25
2022-11-13T01:36:50.753Z,99182.66
2022-11-13T01:39:36.468Z,99177.47
2022-11-13T01:42:21.821Z,99188.69
2022-11-13T01:46:02.111Z,99128.00
2022-11-13T01:49:11.239Z,99202.59
2022-11-13T01:52:10.946Z,99187.84
2022-11-13T01:55:19.094Z,99070.69
2022-11-13T01:58:07.785Z,99219.00
2022-11-13T02:00:53.678Z,99183.44
2022-11-13T02:03:39.494Z,99130.38
2022-11-13T02:06:28.536Z,99210.22
2022-11-13T02:09:16.718Z,99189.31
2022-11-13T02:12:02.738Z,99205.84
2022-11-13T02:15:09.328Z,99191.88
2022-11-13T02:18:00.716Z,99095.56
2022-11-13T02:21:14.724Z,99203.09
2022-11-13T02:24:37.838Z,99192.78
2022-11-13T02:27:34.338Z,99169.34
2022-11-13T02:30:32.196Z,99034.91
2022-11-13T02:33:24.112Z,99193.66
2022-11-13T02:36:12.311Z,99197.06
2022-11-13T02:39:03.205Z,99179.72
2022-11-13T02:41:48.678Z,99168.53
2022-11-13T02:44:34.195Z,99145.09
2022-11-13T02:47:20.056Z,99154.63
2022-11-13T02:50:06.540Z,99134.69
2022-11-13T02:52:52.459Z,99106.88
2022-11-13T02:55:38.012Z,99158.97
2022-11-13T02:58:23.688Z,99165.03
2022-11-13T03:01:09.406Z,99136.41
2022-11-13T03:03:57.891Z,99168.44
2022-11-13T03:06:44.073Z,99038.31
2022-11-13T03:09:29.541Z,99034.03
2022-11-13T03:12:15.159Z,99151.09
2022-11-13T03:15:01.455Z,99143.25
2022-11-13T03:17:47.318Z,99167.50
2022-11-13T03:20:33.081Z,99188.25
2022-11-13T03:23:18.577Z,99164.03
2022-11-13T03:26:06.965Z,99192.53
2022-11-13T03:28:52.504Z,99168.22
2022-11-13T03:31:38.255Z,99139.56
2022-11-13T03:34:23.903Z,99142.13
2022-11-13T03:37:09.643Z,99179.44
2022-11-13T03:39:55.089Z,99068.31
2022-11-13T03:42:40.821Z,99156.84
2022-11-13T03:45:26.122Z,99172.41
2022-11-13T03:48:11.736Z,99158.47
2022-11-13T03:50:57.361Z,99181.81
2022-11-13T03:53:42.643Z,99183.47
2022-11-13T03:56:28.409Z,99168.72
2022-11-13T03:59:13.981Z,99165.22
2022-11-13T04:01:59.661Z,99155.56
2022-11-13T04:04:45.275Z,99160.75
2022-11-13T04:07:30.836Z,99159.00
2022-11-13T04:10:16.591Z,99144.28
2022-11-13T04:13:02.424Z,99173.69
2022-11-13T04:15:48.024Z,99158.88
2022-11-13T04:18:33.447Z,99176.91
2022-11-13T04:21:19.013Z,99137.09
2022-11-13T04:24:04.896Z,99222.09
2022-11-13T04:26:50.793Z,99158.56
2022-11-13T04:29:36.664Z,99137.69
2022-11-13T04:32:22.479Z,99220.91
2022-11-13T04:35:08.142Z,99213.94
2022-11-13T04:37:54.335Z,99196.66
2022-11-13T04:40:40.928Z,99180.97
2022-11-13T04:43:26.681Z,99208.72
2022-11-13T04:46:12.433Z,99184.44
2022-11-13T04:48:58.305Z,99194.09
2022-11-13T04:51:44.056Z,99161.91
2022-11-13T04:54:29.738Z,99131.47
2022-11-13T04:57:15.584Z,99213.13
2022-11-13T05:00:01.248Z,99186.25
2022-11-13T05:02:46.837Z,99115.94
2022-11-13T05:05:32.352Z,99122.88
2022-11-13T05:08:17.790Z,99196.84
2022-11-13T05:11:04.215Z,99232.41
2022-11-13T05:13:49.787Z,99057.81
2022-11-13T05:16:36.738Z,99191.66
2022-11-13T05:19:23.663Z,99182.78
2022-11-13T05:22:09.891Z,99239.38
2022-11-13T05:24:55.654Z,99227.13
2022-11-13T05:27:41.466Z,99239.38
2022-11-13T05:30:27.379Z,99243.69
2022-11-13T05:33:12.808Z,99248.78
2022-11-13T05:36:06.234Z,99234.09
2022-11-13T05:38:52.675Z,99212.44
2022-11-13T05:41:38.397Z,99217.69
2022-11-13T05:44:24.039Z,99227.34
2022-11-13T05:47:09.542Z,99205.63
2022-11-13T05:49:54.944Z,99226.47
2022-11-13T05:52:40.173Z,99251.63
2022-11-13T05:55:25.969Z,99230.75
2022-11-13T05:58:12.994Z,99280.09
2022-11-13T06:01:19.286Z,99271.53
2022-11-13T06:04:06.580Z,99261.63
2022-11-13T06:06:52.652Z,99292.03
2022-11-13T06:09:38.363Z,99316.19
2022-11-13T06:12:24.129Z,99137.06
2022-11-13T06:15:10.431Z,99318.63
2022-11-13T06:17:56.078Z,99297.63
2022-11-13T06:20:41.703Z,99325.47
2022-11-13T06:23:27.132Z,99249.66
2022-11-13T06:26:14.614Z,99339.22
2022-11-13T06:29:01.573Z,99319.84
2022-11-13T06:31:47.061Z,99355.53
2022-11-13T06:34:32.609Z,99359.84
2022-11-13T06:37:18.054Z,99355.53
2022-11-13T06:40:03.932Z,99363.38
2022-11-13T06:42:49.626Z,99372.09
2022-11-13T06:45:35.772Z,99351.09
2022-11-13T06:48:21.368Z,99310.16
2022-11-13T06:51:11.478Z,99372.78
2022-11-13T06:53:58.285Z,99404.88
2022-11-13T06:56:45.688Z,99383.34
2022-11-13T06:59:31.376Z,99399.06
2022-11-13T07:02:16.771Z,99390.34
2022-11-13T07:05:02.697Z,99402.63
2022-11-13T07:07:48.541Z,99380.13
2022-11-13T07:10:34.256Z,99389.53
2022-11-13T07:13:19.633Z,99406.84
2022-11-13T07:16:16.356Z,99373.72
2022-11-13T07:19:02.536Z,99429.34
2022-11-13T07:21:48.202Z,99423.25
2022-11-13T07:24:33.667Z,99423.13
2022-11-13T07:27:18.993Z,99391.97
2022-11-13T07:30:05.381Z,99440.41
2022-11-13T07:32:51.204Z,99429.06
2022-11-13T07:35:36.628Z,99430.91
2022-11-13T07:38:22.852Z,99416.00
2022-11-13T07:41:08.495Z,99414.22
2022-11-13T07:43:53.864Z,99398.66
2022-11-13T07:46:39.489Z,99458.78
2022-11-13T07:49:24.922Z,99453.63
2022-11-13T07:52:10.463Z,99464.88
2022-11-13T07:54:55.982Z,99449.22
2022-11-13T07:57:41.140Z,99431.88
2022-11-13T08:00:28.865Z,99465.81
2022-11-13T08:03:15.488Z,99465.94
2022-11-13T08:06:06.397Z,99393.50
2022-11-13T08:08:51.940Z,99464.78
2022-11-13T08:11:38.124Z,99434.38
2022-11-13T08:14:25.953Z,99441.25
2022-11-13T08:17:11.454Z,99483.28
2022-11-13T08:19:56.910Z,99371.91
2022-11-13T08:22:42.247Z,99446.94
2022-11-13T08:25:29.707Z,99476.66
2022-11-13T08:28:15.956Z,99479.09
2022-11-13T08:31:02.789Z,99490.66
2022-11-13T08:33:48.758Z,99491.34
2022-11-13T08:36:34.384Z,99486.41
2022-11-13T08:39:19.898Z,99491.72
2022-11-13T08:42:05.889Z,99490.06
2022-11-13T08:44:51.595Z,99497.19
2022-11-13T08:47:37.995Z,99503.09
2022-11-13T08:50:23.914Z,99407.44
2022-11-13T08:53:09.392Z,99483.94
2022-11-13T08:55:55.030Z,99457.72
2022-11-13T08:58:40.634Z,99499.97
2022-11-13T09:01:28.382Z,99512.03
2022-11-13T09:04:13.806Z,99527.75
2022-11-13T09:07:01.103Z,99482.25
2022-11-13T09:09:46.798Z,99495.00
2022-11-13T09:12:32.575Z,99535.78
2022-11-13T09:15:21.744Z,99527.06
2022-11-13T09:18:10.866Z,99531.28
2022-11-13T09:21:00.926Z,99451.91
2022-11-13T09:23:46.241Z,99539.81
2022-11-13T09:26:31.763Z,99533.94
2022-11-13T09:29:18.479Z,99447.97
2022-11-13T09:32:04.239Z,99522.06
2022-11-13T09:34:49.895Z,99550.03
2022-11-13T09:37:35.653Z,99553.44
2022-11-13T09:40:30.926Z,99539.34
2022-11-13T09:43:43.307Z,99564.50
2022-11-13T09:46:47.423Z,99532.06
2022-11-13T09:49:38.084Z,99551.91
2022-11-13T09:52:33.070Z,99557.09
2022-11-13T09:55:22.845Z,99552.56
2022-11-13T09:58:36.944Z,99544.06
2022-11-13T10:01:41.691Z,99553.75
2022-11-13T10:04:47.124Z,99586.75
2022-11-13T10:07:48.790Z,99534.38
2022-11-13T10:10:55.589Z,99604.84
2022-11-13T10:14:11.129Z,99607.59
2022-11-13T10:17:04.046Z,99515.13
2022-11-13T10:20:12.647Z,99597.84
2022-11-13T10:23:24.803Z,99594.56
2022-11-13T10:26:35.974Z,99623.13
2022-11-13T10:29:22.059Z,99598.66
2022-11-13T10:32:23.347Z,99426.25
2022-11-13T10:35:42.629Z,99646.44
2022-11-13T10:38:43.566Z,99593.28
2022-11-13T10:41:29.938Z,99653.94
2022-11-13T10:44:20.420Z,99653.00
2022-11-13T10:47:17.843Z,99615.50
2022-11-13T10:50:12.896Z,99639.72
2022-11-13T10:52:59.876Z,99642.25
2022-11-13T10:55:47.528Z,99626.56
2022-11-13T10:58:40.329Z,99327.31
2022-11-13T11:01:27.565Z,99621.19
2022-11-13T11:04:20.271Z,99648.44
2022-11-13T11:07:20.367Z,99641.69
2022-11-13T11:10:30.974Z,99575.53
2022-11-13T11:13:23.087Z,99643.41
2022-11-13T11:16:11.793Z,99638.00
2022-11-13T11:19:09.506Z,99680.13
2022-11-13T11:22:07.176Z,99615.97
2022-11-13T11:25:02.039Z,99698.19
2022-11-13T11:27:55.374Z,99692.00
2022-11-13T11:30:49.975Z,99694.16
2022-11-13T11:34:19.065Z,99660.66
2022-11-13T11:37:23.765Z,99685.63
2022-11-13T11:40:26.224Z,99694.44
2022-11-13T11:43:12.185Z,99709.09
2022-11-13T11:45:58.955Z,99638.06
2022-11-13T11:48:44.551Z,99687.00
2022-11-13T11:51:43.082Z,99672.06
2022-11-13T11:54:28.727Z,99720.78
2022-11-13T11:57:48.655Z,99748.41
2022-11-13T12:00:43.606Z,99732.56
2022-11-13T12:03:35.335Z,99728.25
2022-11-13T12:06:39.590Z,99732.50
2022-11-13T12:09:31.713Z,99695.78
2022-11-13T12:12:45.463Z,99753.25
2022-11-13T12:15:46.428Z,99728.53
2022-11-13T12:19:05.774Z,99748.44
2022-11-13T12:22:08.556Z,99744.53
2022-11-13T12:25:09.707Z,99468.13
2022-11-13T12:28:41.182Z,99773.56
2022-11-13T12:31:57.857Z,99792.28
2022-11-13T12:34:47.573Z,99805.84
2022-11-13T12:37:38.749Z,99840.19
2022-11-13T12:40:48.570Z,99770.25
2022-11-13T12:44:17.369Z,99818.09
2022-11-13T12:47:03.174Z,99718.72
2022-11-13T12:49:59.249Z,99832.44
2022-11-13T12:52:45.211Z,99830.31
2022-11-13T12:55:36.170Z,99820.78
2022-11-13T12:58:30.631Z,99778.63
2022-11-13T13:01:21.657Z,99826.72
2022-11-13T13:04:19.543Z,99857.22
2022-11-13T13:07:29.282Z,99864.91
2022-11-13T13:10:29.589Z,99869.13
2022-11-13T13:13:19.501Z,99872.53
2022-11-13T13:16:09.120Z,99872.47
2022-11-13T13:19:08.344Z,99875.00
2022-11-13T13:21:54.911Z,99846.88
2022-11-13T13:24:40.680Z,99855.28
2022-11-13T13:27:33.228Z,99812.16
2022-11-13T13:30:21.791Z,99899.31
2022-11-13T13:33:19.172Z,99916.84
2022-11-13T13:36:30.832Z,99897.72
2022-11-13T13:39:18.955Z,99913.91
2022-11-13T13:42:16.952Z,99910.44
2022-11-13T13:45:24.760Z,99931.03
2022-11-13T13:48:13.637Z,99900.44
2022-11-13T13:51:01.199Z,99907.28
2022-11-13T13:53:48.394Z,99894.06
2022-11-13T13:56:39.961Z,99896.50
2022-11-13T13:59:37.221Z,99927.81
2022-11-13T14:02:25.585Z,99909.91
2022-11-13T14:05:35.473Z,99895.50
2022-11-13T14:08:26.205Z,99931.06
2022-11-13T14:11:31.104Z,99872.94
2022-11-13T14:14:20.531Z,99922.81
2022-11-13T14:17:07.058Z,99947.47
2022-11-13T14:19:54.311Z,99950.13
2022-11-13T14:22:42.820Z,99923.66
2022-11-13T14:25:29.543Z,99927.41
2022-11-13T14:28:27.649Z,99970.97
2022-11-13T14:31:14.984Z,99947.22
2022-11-13T14:34:08.436Z,99961.16
2022-11-13T14:36:54.030Z,99975.19
2022-11-13T14:39:39.660Z,99985.75
2022-11-13T14:42:39.242Z,99938.47
2022-11-13T14:45:30.038Z,99906.75
2022-11-13T14:48:22.940Z,99923.22
2022-11-13T14:51:32.060Z,100015.88
2022-11-13T14:54:53.204Z,99994.28
2022-11-13T14:57:47.730Z,99898.44
2022-11-13T15:00:36.429Z,100005.03
2022-11-13T15:03:22.293Z,99987.53
2022-11-13T15:06:27.107Z,100003.41
2022-11-13T15:09:16.551Z,100008.28
2022-11-13T15:12:02.327Z,100021.50
2022-11-13T15:14:47.821Z,100025.91
2022-11-13T15:17:33.482Z,99995.84
2022-11-13T15:20:24.857Z,100037.19
2022-11-13T15:23:15.289Z,100024.81
2022-11-13T15:26:00.468Z,100039.50
2022-11-13T15:28:46.195Z,100038.59
2022-11-13T15:31:41.341Z,100050.09
2022-11-13T15:34:27.133Z,100053.34
2022-11-13T15:37:14.557Z,100055.66
2022-11-13T15:39:59.745Z,100035.84
2022-11-13T15:42:45.560Z,100053.00
2022-11-13T15:45:31.243Z,100005.50
2022-11-13T15:48:17.710Z,100063.06
2022-11-13T15:51:03.136Z,100044.53
2022-11-13T15:54:01.792Z,99986.56
2022-11-13T15:56:47.887Z,100066.06
2022-11-13T15:59:33.502Z,100070.16
2022-11-13T16:02:19.349Z,100081.28
2022-11-13T16:05:05.464Z,100096.41
2022-11-13T16:07:53.007Z,100103.28
2022-11-13T16:10:38.932Z,100021.75
2022-11-13T16:13:24.674Z,100019.00
2022-11-13T16:16:18.682Z,100108.56
2022-11-13T16:19:13.336Z,100102.44
2022-11-13T16:21:58.983Z,100084.88
2022-11-13T16:24:44.868Z,99993.13
2022-11-13T16:27:34.089Z,99789.59
2022-11-13T16:30:23.460Z,100111.00
2022-11-13T16:33:12.768Z,100131.09
2022-11-13T16:35:58.269Z,100104.06
2022-11-13T16:38:43.408Z,100140.53
2022-11-13T16:41:31.690Z,100131.75
2022-11-13T16:44:17.599Z,100133.53
2022-11-13T16:47:04.459Z,100126.16
2022-11-13T16:49:50.670Z,100075.31
2022-11-13T16:52:37.368Z,100155.66
2022-11-13T16:55:23.632Z,100135.94
2022-11-13T16:58:13.695Z,100142.72
2022-11-13T17:01:00.340Z,100139.16
2022-11-13T17:03:46.067Z,100050.44
2022-11-13T17:06:35.662Z,100147.84
2022-11-13T17:09:21.289Z,100153.81
2022-11-13T17:12:11.042Z,100145.63
2022-11-13T17:14:56.827Z,100154.53
2022-11-13T17:17:42.283Z,100137.94
2022-11-13T17:20:28.279Z,100157.84
2022-11-13T17:23:16.289Z,100149.97
2022-11-13T17:26:02.977Z,100158.75
2022-11-13T17:28:48.744Z,100149.03
2022-11-13T17:31:34.802Z,100046.94
2022-11-13T17:34:20.086Z,100175.81
2022-11-13T17:37:06.116Z,100164.63
2022-11-13T17:39:51.790Z,100156.47
2022-11-13T17:42:37.530Z,100182.41
2022-11-13T17:45:23.066Z,100098.84
2022-11-13T17:48:08.851Z,100162.78
2022-11-13T17:50:59.188Z,100161.16
2022-11-13T17:53:44.849Z,100177.88
2022-11-13T17:56:30.744Z,100067.19
2022-11-13T17:59:16.455Z,100161.84
2022-11-13T18:02:02.917Z,100165.59
2022-11-13T18:04:49.166Z,100195.16
2022-11-13T18:07:34.806Z,100194.97
2022-11-13T18:10:20.742Z,100184.41
2022-11-13T18:13:07.047Z,99855.06
2022-11-13T18:15:53.086Z,100204.41
2022-11-13T18:18:39.737Z,100130.47
2022-11-13T18:21:30.858Z,100217.34
2022-11-13T18:24:19.227Z,100143.59
2022-11-13T18:27:08.622Z,100092.63
2022-11-13T18:29:54.204Z,100190.34
2022-11-13T18:32:40.048Z,100205.81
2022-11-13T18:35:25.426Z,100090.81
2022-11-13T18:38:11.352Z,100217.88
2022-11-13T18:41:04.073Z,100210.91
2022-11-13T18:43:51.416Z,100212.34
2022-11-13T18:46:37.260Z,100137.97
2022-11-13T18:49:23.375Z,100213.66
2022-11-13T18:52:09.271Z,100216.25
2022-11-13T18:54:55.116Z,100223.53
2022-11-13T18:57:40.907Z,100190.50
2022-11-13T19:00:26.647Z,100206.38
2022-11-13T19:03:12.235Z,100212.25
2022-11-13T19:05:58.085Z,100234.03
2022-11-13T19:08:44.409Z,100221.84
2022-11-13T19:11:31.072Z,100220.13
2022-11-13T19:14:18.454Z,100238.66
2022-11-13T19:17:04.349Z,100234.88
2022-11-13T19:19:50.470Z,100217.94
2022-11-13T19:22:35.991Z,100219.81
2022-11-13T19:25:22.913Z,100226.66
2022-11-13T19:28:08.878Z,100114.09
2022-11-13T19:30:57.236Z,100225.72
2022-11-13T19:33:44.026Z,100170.00
2022-11-13T19:36:31.531Z,100197.94
2022-11-13T19:39:17.707Z,100208.66
2022-11-13T19:42:03.488Z,100217.50
2022-11-13T19:44:49.332Z,100227.75
2022-11-13T19:47:36.279Z,100231.41
2022-11-13T19:50:21.996Z,100241.81
2022-11-13T19:53:07.906Z,100234.72
2022-11-13T19:55:55.443Z,100242.59
2022-11-13T19:58:44.260Z,100202.56
2022-11-13T20:01:32.154Z,100212.97
2022-11-13T20:04:18.210Z,100204.97
2022-11-13T20:07:04.260Z,100238.31
2022-11-13T20:09:50.049Z,100242.34
2022-11-13T20:12:35.812Z,100242.09
2022-11-13T20:15:21.489Z,100207.22
2022-11-13T20:18:07.338Z,100249.75
2022-11-13T20:20:54.962Z,100285.25
2022-11-13T20:23:40.852Z,100295.31
2022-11-13T20:26:27.681Z,100302.00
2022-11-13T20:29:13.448Z,100291.22
2022-11-13T20:32:02.150Z,100287.34
2022-11-13T20:34:48.028Z,100296.13
2022-11-13T20:37:34.402Z,100292.25
2022-11-13T20:40:20.752Z,100296.94
2022-11-13T20:43:06.472Z,100302.34
2022-11-13T20:46:01.600Z,100234.28
2022-11-13T20:48:48.234Z,100283.63
2022-11-13T20:51:34.108Z,100313.09
2022-11-13T20:54:20.053Z,100305.91
2022-11-13T20:57:05.912Z,100311.09
2022-11-13T20:59:51.561Z,100306.84
2022-11-13T21:02:36.999Z,100290.84
2022-11-13T21:05:22.465Z,100314.56
2022-11-13T21:08:11.376Z,100328.34
2022-11-13T21:11:02.717Z,100280.66
2022-11-13T21:13:49.806Z,100310.53
2022-11-13T21:16:35.089Z,100250.66
2022-11-13T21:19:22.519Z,100328.34
2022-11-13T21:22:08.225Z,100332.66
2022-11-13T21:24:53.780Z,100332.50
2022-11-13T21:27:39.854Z,100237.53
2022-11-13T21:30:25.527Z,100323.78
2022-11-13T21:33:11.179Z,100179.34
2022-11-13T21:36:03.903Z,100296.09
2022-11-13T21:38:50.263Z,100235.91
2022-11-13T21:41:35.652Z,100283.69
2022-11-13T21:44:21.048Z,100305.63
2022-11-13T21:47:06.307Z,100323.03
2022-11-13T21:49:52.098Z,100206.63
2022-11-13T21:52:37.885Z,100238.16
2022-11-13T21:55:23.681Z,100333.31
2022-11-13T21:58:09.163Z,100310.91
2022-11-13T22:00:54.525Z,100335.88
2022-11-13T22:03:41.176Z,100347.84
2022-11-13T22:06:30.225Z,100154.97
2022-11-13T22:09:17.435Z,100353.53
2022-11-13T22:12:03.150Z,100342.00
2022-11-13T22:14:48.801Z,100235.38
2022-11-13T22:17:34.208Z,100351.91
2022-11-13T22:20:19.802Z,100363.28
2022-11-13T22:23:05.965Z,100345.72
2022-11-13T22:25:55.766Z,100319.94
2022-11-13T22:28:45.188Z,100360.06
2022-11-13T22:31:33.043Z,100241.03
2022-11-13T22:34:18.489Z,100372.66
2022-11-13T22:37:04.253Z,100362.69
2022-11-13T22:39:49.744Z,100375.47
2022-11-13T22:42:35.355Z,100376.19
2022-11-13T22:45:24.483Z,100374.44
2022-11-13T22:48:11.466Z,100360.00
2022-11-13T22:51:01.841Z,100337.22
2022-11-13T22:53:58.207Z,100379.56
2022-11-13T22:56:44.423Z,100367.22
2022-11-13T22:59:29.896Z,100372.50
2022-11-13T23:02:15.501Z,100347.66
2022-11-13T23:05:01.316Z,100299.91
2022-11-13T23:07:46.993Z,100373.63
2022-11-13T23:10:32.544Z,100318.03
2022-11-13T23:13:18.108Z,100339.06
2022-11-13T23:16:04.002Z,100335.25
2022-11-13T23:18:50.347Z,100362.06
2022-11-13T23:21:35.972Z,100326.56
2022-11-13T23:24:21.413Z,100244.78
2022-11-13T23:27:06.985Z,100419.06
2022-11-13T23:29:53.906Z,100442.25
2022-11-13T23:32:39.557Z,100441.16
2022-11-13T23:35:25.373Z,100343.28
2022-11-13T23:38:11.249Z,100302.41
2022-11-13T23:40:58.358Z,100409.28
2022-11-13T23:46:49.566Z,100372.56
2022-11-13T23:49:35.271Z,100415.03
2022-11-13T23:52:21.066Z,100331.91
2022-11-13T23:55:07.104Z,100437.66
2022-11-13T23:58:00.185Z,100397.28
